Youree, Louisiana
Current Conditions -  °F | °C
As of 8:58 AM on Thursday 30 Oct 2014 (Local Time) from KBAD Reporting Station
Clear Clear  
Wind Chill: 51°   Ceiling: Unl
Heat Index: 51°   Visibility: 10mi
Dew Point: 48°   Wind: 2mph
Humidity: 92%   Direction: 350°N
Pressure: 30.18"   Gusts: NA
Location:  32.457°N, 93.7096°W
Report Text: KBAD 301358Z AUTO 35002KT 10SM CLR 10/09 A3018 RMK AO2 SLP223 T01030091
Loading
Personal Weather Stations






























Interactive Weather Map
Tropical Storm Tracking
New forecast layout! Learn more

10-Day Weather Forecast

Advertisements
Track Severe Weather on mobile